sensor_id;sensor_type;location;lat;lon;timestamp;temperature;humidity
70807;DHT22;58882;52.170;5.386;2023-02-01T00:00:55;14.70;43.70
70807;DHT22;58882;52.170;5.386;2023-02-01T00:03:35;14.70;43.70
70807;DHT22;58882;52.170;5.386;2023-02-01T00:06:22;14.80;43.80
70807;DHT22;58882;52.170;5.386;2023-02-01T00:09:02;14.80;43.80
70807;DHT22;58882;52.170;5.386;2023-02-01T00:11:49;14.70;43.70
70807;DHT22;58882;52.170;5.386;2023-02-01T00:14:30;14.80;43.90
70807;DHT22;58882;52.170;5.386;2023-02-01T00:17:17;14.80;43.80
70807;DHT22;58882;52.170;5.386;2023-02-01T00:19:58;14.80;43.80
70807;DHT22;58882;52.170;5.386;2023-02-01T00:22:45;14.80;43.80
70807;DHT22;58882;52.170;5.386;2023-02-01T00:25:25;14.80;43.90
70807;DHT22;58882;52.170;5.386;2023-02-01T00:28:12;14.80;44.00
70807;DHT22;58882;52.170;5.386;2023-02-01T00:31:03;14.80;44.00
70807;DHT22;58882;52.170;5.386;2023-02-01T00:33:50;14.80;43.90
70807;DHT22;58882;52.170;5.386;2023-02-01T00:36:30;14.80;44.10
70807;DHT22;58882;52.170;5.386;2023-02-01T00:39:17;14.80;45.10
70807;DHT22;58882;52.170;5.386;2023-02-01T00:41:57;14.80;44.20
70807;DHT22;58882;52.170;5.386;2023-02-01T00:44:44;14.80;44.10
70807;DHT22;58882;52.170;5.386;2023-02-01T00:47:24;14.80;44.20
70807;DHT22;58882;52.170;5.386;2023-02-01T00:50:11;14.80;44.10
70807;DHT22;58882;52.170;5.386;2023-02-01T00:52:51;14.80;44.50
70807;DHT22;58882;52.170;5.386;2023-02-01T00:55:38;14.90;44.10
70807;DHT22;58882;52.170;5.386;2023-02-01T00:58:18;14.90;44.10
70807;DHT22;58882;52.170;5.386;2023-02-01T01:01:10;14.90;44.20
70807;DHT22;58882;52.170;5.386;2023-02-01T01:03:59;14.90;44.20
70807;DHT22;58882;52.170;5.386;2023-02-01T01:06:39;14.90;44.10
70807;DHT22;58882;52.170;5.386;2023-02-01T01:09:26;14.90;44.10
70807;DHT22;58882;52.170;5.386;2023-02-01T01:11:59;14.90;44.10
70807;DHT22;58882;52.170;5.386;2023-02-01T01:14:53;15.00;44.30
70807;DHT22;58882;52.170;5.386;2023-02-01T01:17:26;14.90;44.20
70807;DHT22;58882;52.170;5.386;2023-02-01T01:20:20;15.00;45.30
70807;DHT22;58882;52.170;5.386;2023-02-01T01:22:55;14.90;44.20
70807;DHT22;58882;52.170;5.386;2023-02-01T01:25:49;14.90;44.20
70807;DHT22;58882;52.170;5.386;2023-02-01T01:28:22;14.90;44.20
70807;DHT22;58882;52.170;5.386;2023-02-01T01:31:17;15.00;44.30
70807;DHT22;58882;52.170;5.386;2023-02-01T01:33:58;15.00;44.30
70807;DHT22;58882;52.170;5.386;2023-02-01T01:36:46;15.00;44.40
70807;DHT22;58882;52.170;5.386;2023-02-01T01:39:26;15.00;44.30
70807;DHT22;58882;52.170;5.386;2023-02-01T01:42:13;15.00;44.30
70807;DHT22;58882;52.170;5.386;2023-02-01T01:45:00;15.00;44.30
70807;DHT22;58882;52.170;5.386;2023-02-01T01:47:53;15.00;44.30
70807;DHT22;58882;52.170;5.386;2023-02-01T01:50:56;15.00;44.10
70807;DHT22;58882;52.170;5.386;2023-02-01T01:54:02;15.00;44.00
70807;DHT22;58882;52.170;5.386;2023-02-01T01:56:51;15.00;44.00
70807;DHT22;58882;52.170;5.386;2023-02-01T01:59:55;15.00;43.90
70807;DHT22;58882;52.170;5.386;2023-02-01T02:02:40;15.00;44.00
70807;DHT22;58882;52.170;5.386;2023-02-01T02:05:35;15.00;44.00
70807;DHT22;58882;52.170;5.386;2023-02-01T02:08:15;15.00;44.00
70807;DHT22;58882;52.170;5.386;2023-02-01T02:11:03;15.00;44.10
70807;DHT22;58882;52.170;5.386;2023-02-01T02:13:46;15.00;44.10
70807;DHT22;58882;52.170;5.386;2023-02-01T02:20:22;15.00;44.10
70807;DHT22;58882;52.170;5.386;2023-02-01T02:30:02;15.00;44.30
70807;DHT22;58882;52.170;5.386;2023-02-01T02:37:11;15.00;44.30
70807;DHT22;58882;52.170;5.386;2023-02-01T02:46:38;15.00;44.50
70807;DHT22;58882;52.170;5.386;2023-02-01T02:49:42;15.00;44.40
70807;DHT22;58882;52.170;5.386;2023-02-01T02:53:04;15.00;44.50
70807;DHT22;58882;52.170;5.386;2023-02-01T02:56:07;15.00;44.50
70807;DHT22;58882;52.170;5.386;2023-02-01T02:59:17;15.00;44.30
70807;DHT22;58882;52.170;5.386;2023-02-01T03:02:17;15.00;44.50
70807;DHT22;58882;52.170;5.386;2023-02-01T03:05:24;15.10;44.60
70807;DHT22;58882;52.170;5.386;2023-02-01T03:08:13;15.00;44.50
70807;DHT22;58882;52.170;5.386;2023-02-01T03:11:08;15.10;44.70
70807;DHT22;58882;52.170;5.386;2023-02-01T03:13:59;15.00;44.60
70807;DHT22;58882;52.170;5.386;2023-02-01T03:16:53;15.00;44.50
70807;DHT22;58882;52.170;5.386;2023-02-01T03:19:38;15.00;44.60
70807;DHT22;58882;52.170;5.386;2023-02-01T03:22:29;15.00;44.60
70807;DHT22;58882;52.170;5.386;2023-02-01T03:25:17;15.10;44.50
70807;DHT22;58882;52.170;5.386;2023-02-01T03:28:07;15.10;44.60
70807;DHT22;58882;52.170;5.386;2023-02-01T03:30:51;15.00;44.50
70807;DHT22;58882;52.170;5.386;2023-02-01T03:33:38;15.10;44.40
70807;DHT22;58882;52.170;5.386;2023-02-01T03:39:13;15.10;44.40
70807;DHT22;58882;52.170;5.386;2023-02-01T03:41:57;15.00;44.50
70807;DHT22;58882;52.170;5.386;2023-02-01T03:47:30;15.00;44.40
70807;DHT22;58882;52.170;5.386;2023-02-01T03:50:28;15.00;44.30
70807;DHT22;58882;52.170;5.386;2023-02-01T03:53:14;15.00;44.40
70807;DHT22;58882;52.170;5.386;2023-02-01T03:56:12;15.00;44.40
70807;DHT22;58882;52.170;5.386;2023-02-01T03:58:52;15.10;44.50
70807;DHT22;58882;52.170;5.386;2023-02-01T04:01:41;15.00;44.40
70807;DHT22;58882;52.170;5.386;2023-02-01T04:04:28;15.00;45.50
70807;DHT22;58882;52.170;5.386;2023-02-01T04:07:08;15.00;44.50
70807;DHT22;58882;52.170;5.386;2023-02-01T04:09:56;15.00;44.50
70807;DHT22;58882;52.170;5.386;2023-02-01T04:12:36;15.00;44.40
70807;DHT22;58882;52.170;5.386;2023-02-01T04:15:23;15.00;44.60
70807;DHT22;58882;52.170;5.386;2023-02-01T04:18:03;15.00;44.60
70807;DHT22;58882;52.170;5.386;2023-02-01T04:20:50;15.00;44.50
70807;DHT22;58882;52.170;5.386;2023-02-01T04:23:30;15.00;44.50
70807;DHT22;58882;52.170;5.386;2023-02-01T04:26:24;15.00;44.70
70807;DHT22;58882;52.170;5.386;2023-02-01T04:29:04;15.00;44.50
70807;DHT22;58882;52.170;5.386;2023-02-01T04:31:51;15.00;44.40
70807;DHT22;58882;52.170;5.386;2023-02-01T04:34:31;15.00;44.40
70807;DHT22;58882;52.170;5.386;2023-02-01T04:37:18;15.00;44.30
70807;DHT22;58882;52.170;5.386;2023-02-01T04:39:58;15.00;44.30
70807;DHT22;58882;52.170;5.386;2023-02-01T04:42:52;15.00;44.40
70807;DHT22;58882;52.170;5.386;2023-02-01T04:45:32;15.00;44.50
70807;DHT22;58882;52.170;5.386;2023-02-01T04:48:19;14.90;44.40
70807;DHT22;58882;52.170;5.386;2023-02-01T04:51:00;14.90;44.50
70807;DHT22;58882;52.170;5.386;2023-02-01T04:53:47;15.00;44.40
70807;DHT22;58882;52.170;5.386;2023-02-01T04:56:27;14.90;44.50
70807;DHT22;58882;52.170;5.386;2023-02-01T04:59:14;14.90;44.50
70807;DHT22;58882;52.170;5.386;2023-02-01T05:01:54;14.90;44.50
70807;DHT22;58882;52.170;5.386;2023-02-01T05:04:41;15.00;44.70
70807;DHT22;58882;52.170;5.386;2023-02-01T05:07:21;15.00;44.50
70807;DHT22;58882;52.170;5.386;2023-02-01T05:10:15;15.00;44.50
70807;DHT22;58882;52.170;5.386;2023-02-01T05:12:56;15.00;44.60
70807;DHT22;58882;52.170;5.386;2023-02-01T05:16:09;15.00;45.20
70807;DHT22;58882;52.170;5.386;2023-02-01T05:18:49;15.00;44.70
70807;DHT22;58882;52.170;5.386;2023-02-01T05:21:36;15.00;44.70
70807;DHT22;58882;52.170;5.386;2023-02-01T05:24:09;15.00;44.70
70807;DHT22;58882;52.170;5.386;2023-02-01T05:27:09;15.00;44.60
70807;DHT22;58882;52.170;5.386;2023-02-01T05:29:49;15.00;44.80
70807;DHT22;58882;52.170;5.386;2023-02-01T05:32:36;15.00;44.70
70807;DHT22;58882;52.170;5.386;2023-02-01T05:35:16;15.00;44.70
70807;DHT22;58882;52.170;5.386;2023-02-01T05:38:03;15.00;44.70
70807;DHT22;58882;52.170;5.386;2023-02-01T05:40:43;15.00;44.70
70807;DHT22;58882;52.170;5.386;2023-02-01T05:43:30;15.00;44.70
70807;DHT22;58882;52.170;5.386;2023-02-01T05:46:13;15.00;44.80
70807;DHT22;58882;52.170;5.386;2023-02-01T05:49:00;15.00;44.80
70807;DHT22;58882;52.170;5.386;2023-02-01T05:51:40;15.00;44.60
70807;DHT22;58882;52.170;5.386;2023-02-01T05:54:27;15.00;44.80
70807;DHT22;58882;52.170;5.386;2023-02-01T05:57:07;15.00;44.70
70807;DHT22;58882;52.170;5.386;2023-02-01T06:00:02;15.00;44.70
70807;DHT22;58882;52.170;5.386;2023-02-01T06:02:42;15.00;44.70
70807;DHT22;58882;52.170;5.386;2023-02-01T06:05:36;15.00;44.80
70807;DHT22;58882;52.170;5.386;2023-02-01T06:08:30;15.00;45.00
70807;DHT22;58882;52.170;5.386;2023-02-01T06:11:04;15.00;45.00
70807;DHT22;58882;52.170;5.386;2023-02-01T06:14:11;15.00;44.90
70807;DHT22;58882;52.170;5.386;2023-02-01T06:16:44;15.00;45.00
70807;DHT22;58882;52.170;5.386;2023-02-01T06:19:38;15.00;44.90
70807;DHT22;58882;52.170;5.386;2023-02-01T06:22:20;15.00;44.90
70807;DHT22;58882;52.170;5.386;2023-02-01T06:25:09;15.00;44.90
70807;DHT22;58882;52.170;5.386;2023-02-01T06:27:49;15.00;44.90
70807;DHT22;58882;52.170;5.386;2023-02-01T06:30:43;15.00;44.90
70807;DHT22;58882;52.170;5.386;2023-02-01T06:33:25;15.00;44.90
70807;DHT22;58882;52.170;5.386;2023-02-01T06:36:12;15.10;45.00
70807;DHT22;58882;52.170;5.386;2023-02-01T06:38:53;15.00;44.80
70807;DHT22;58882;52.170;5.386;2023-02-01T06:41:48;15.00;44.90
70807;DHT22;58882;52.170;5.386;2023-02-01T06:44:28;15.00;45.00
70807;DHT22;58882;52.170;5.386;2023-02-01T06:47:15;15.00;44.90
70807;DHT22;58882;52.170;5.386;2023-02-01T06:49:55;15.00;44.90
70807;DHT22;58882;52.170;5.386;2023-02-01T06:52:42;15.00;44.80
70807;DHT22;58882;52.170;5.386;2023-02-01T06:55:22;15.00;44.90
70807;DHT22;58882;52.170;5.386;2023-02-01T06:58:16;15.10;44.90
70807;DHT22;58882;52.170;5.386;2023-02-01T07:00:49;15.10;44.70
70807;DHT22;58882;52.170;5.386;2023-02-01T07:03:47;15.10;44.70
70807;DHT22;58882;52.170;5.386;2023-02-01T07:06:41;15.10;44.70
70807;DHT22;58882;52.170;5.386;2023-02-01T07:09:21;15.10;44.80
70807;DHT22;58882;52.170;5.386;2023-02-01T07:12:08;15.20;44.80
70807;DHT22;58882;52.170;5.386;2023-02-01T07:14:48;15.20;44.80
70807;DHT22;58882;52.170;5.386;2023-02-01T07:17:36;15.20;44.80
70807;DHT22;58882;52.170;5.386;2023-02-01T07:20:16;15.20;44.90
70807;DHT22;58882;52.170;5.386;2023-02-01T07:23:03;15.20;44.80
70807;DHT22;58882;52.170;5.386;2023-02-01T07:25:43;15.20;45.80
70807;DHT22;58882;52.170;5.386;2023-02-01T07:28:37;15.30;44.80
70807;DHT22;58882;52.170;5.386;2023-02-01T07:31:19;15.30;44.70
70807;DHT22;58882;52.170;5.386;2023-02-01T07:34:15;15.30;44.50
70807;DHT22;58882;52.170;5.386;2023-02-01T07:36:55;15.30;44.30
70807;DHT22;58882;52.170;5.386;2023-02-01T07:39:42;15.30;44.30
70807;DHT22;58882;52.170;5.386;2023-02-01T07:42:22;15.30;44.10
70807;DHT22;58882;52.170;5.386;2023-02-01T07:45:09;15.30;44.00
70807;DHT22;58882;52.170;5.386;2023-02-01T07:47:53;15.30;43.90
70807;DHT22;58882;52.170;5.386;2023-02-01T07:50:40;15.30;43.80
70807;DHT22;58882;52.170;5.386;2023-02-01T07:53:20;15.40;43.70
70807;DHT22;58882;52.170;5.386;2023-02-01T07:56:12;15.40;43.60
70807;DHT22;58882;52.170;5.386;2023-02-01T07:58:54;15.40;43.40
70807;DHT22;58882;52.170;5.386;2023-02-01T08:01:41;15.40;43.50
70807;DHT22;58882;52.170;5.386;2023-02-01T08:04:29;15.40;43.30
70807;DHT22;58882;52.170;5.386;2023-02-01T08:07:09;15.40;43.30
70807;DHT22;58882;52.170;5.386;2023-02-01T08:09:56;15.40;43.30
70807;DHT22;58882;52.170;5.386;2023-02-01T08:12:36;15.40;43.20
70807;DHT22;58882;52.170;5.386;2023-02-01T08:15:23;15.40;43.20
70807;DHT22;58882;52.170;5.386;2023-02-01T08:18:03;15.40;43.10
70807;DHT22;58882;52.170;5.386;2023-02-01T08:20:51;15.40;43.10
70807;DHT22;58882;52.170;5.386;2023-02-01T08:23:32;15.40;43.10
70807;DHT22;58882;52.170;5.386;2023-02-01T08:26:19;15.40;43.20
70807;DHT22;58882;52.170;5.386;2023-02-01T08:29:02;15.40;43.20
70807;DHT22;58882;52.170;5.386;2023-02-01T08:31:59;15.50;43.10
70807;DHT22;58882;52.170;5.386;2023-02-01T08:34:39;15.60;42.90
70807;DHT22;58882;52.170;5.386;2023-02-01T08:37:26;15.70;42.80
70807;DHT22;58882;52.170;5.386;2023-02-01T08:40:06;15.80;42.50
70807;DHT22;58882;52.170;5.386;2023-02-01T08:42:54;15.90;42.60
70807;DHT22;58882;52.170;5.386;2023-02-01T08:45:34;15.80;42.50
70807;DHT22;58882;52.170;5.386;2023-02-01T08:48:21;15.80;42.50
70807;DHT22;58882;52.170;5.386;2023-02-01T08:51:07;15.80;42.50
70807;DHT22;58882;52.170;5.386;2023-02-01T08:53:54;15.80;42.50
70807;DHT22;58882;52.170;5.386;2023-02-01T08:56:34;15.80;42.50
70807;DHT22;58882;52.170;5.386;2023-02-01T08:59:21;15.90;42.40
70807;DHT22;58882;52.170;5.386;2023-02-01T09:02:02;16.00;42.00
70807;DHT22;58882;52.170;5.386;2023-02-01T09:04:49;16.00;41.80
70807;DHT22;58882;52.170;5.386;2023-02-01T09:07:29;16.00;41.80
70807;DHT22;58882;52.170;5.386;2023-02-01T09:10:16;16.10;42.00
70807;DHT22;58882;52.170;5.386;2023-02-01T09:13:08;16.30;41.90
70807;DHT22;58882;52.170;5.386;2023-02-01T09:15:55;16.60;41.60
70807;DHT22;58882;52.170;5.386;2023-02-01T09:18:35;16.90;41.00
70807;DHT22;58882;52.170;5.386;2023-02-01T09:21:40;17.00;41.60
70807;DHT22;58882;52.170;5.386;2023-02-01T09:24:20;17.20;40.20
70807;DHT22;58882;52.170;5.386;2023-02-01T09:27:14;17.30;40.00
70807;DHT22;58882;52.170;5.386;2023-02-01T09:29:48;17.30;39.90
70807;DHT22;58882;52.170;5.386;2023-02-01T09:32:42;17.20;39.90
70807;DHT22;58882;52.170;5.386;2023-02-01T09:35:15;17.20;40.00
70807;DHT22;58882;52.170;5.386;2023-02-01T09:38:09;17.10;40.00
70807;DHT22;58882;52.170;5.386;2023-02-01T09:40:49;17.00;40.20
70807;DHT22;58882;52.170;5.386;2023-02-01T09:46:31;16.70;40.30
70807;DHT22;58882;52.170;5.386;2023-02-01T09:49:23;16.60;40.30
70807;DHT22;58882;52.170;5.386;2023-02-01T09:52:07;16.60;40.50
70807;DHT22;58882;52.170;5.386;2023-02-01T09:55:11;16.50;40.50
70807;DHT22;58882;52.170;5.386;2023-02-01T09:57:56;16.50;40.60
70807;DHT22;58882;52.170;5.386;2023-02-01T10:00:57;16.50;40.70
70807;DHT22;58882;52.170;5.386;2023-02-01T10:03:33;16.40;40.60
70807;DHT22;58882;52.170;5.386;2023-02-01T10:06:37;16.40;40.70
70807;DHT22;58882;52.170;5.386;2023-02-01T10:19:10;16.10;41.00
70807;DHT22;58882;52.170;5.386;2023-02-01T10:24:53;16.00;41.30
70807;DHT22;58882;52.170;5.386;2023-02-01T10:27:38;16.00;41.60
70807;DHT22;58882;52.170;5.386;2023-02-01T10:30:31;16.00;41.70
70807;DHT22;58882;52.170;5.386;2023-02-01T10:33:32;15.90;41.90
70807;DHT22;58882;52.170;5.386;2023-02-01T10:36:40;15.90;42.00
70807;DHT22;58882;52.170;5.386;2023-02-01T10:39:20;15.80;42.10
70807;DHT22;58882;52.170;5.386;2023-02-01T10:42:08;15.80;42.20
70807;DHT22;58882;52.170;5.386;2023-02-01T10:44:48;15.80;42.30
70807;DHT22;58882;52.170;5.386;2023-02-01T10:47:42;15.80;42.50
70807;DHT22;58882;52.170;5.386;2023-02-01T10:56:25;15.80;42.40
70807;DHT22;58882;52.170;5.386;2023-02-01T10:59:24;15.80;42.30
70807;DHT22;58882;52.170;5.386;2023-02-01T11:02:05;15.70;42.30
70807;DHT22;58882;52.170;5.386;2023-02-01T11:05:09;15.70;42.30
70807;DHT22;58882;52.170;5.386;2023-02-01T11:07:53;15.80;42.30
70807;DHT22;58882;52.170;5.386;2023-02-01T11:10:42;15.80;42.20
70807;DHT22;58882;52.170;5.386;2023-02-01T11:13:29;15.70;42.20
70807;DHT22;58882;52.170;5.386;2023-02-01T11:16:16;15.70;42.20
70807;DHT22;58882;52.170;5.386;2023-02-01T11:18:54;15.70;42.20
70807;DHT22;58882;52.170;5.386;2023-02-01T11:21:53;15.70;43.40
70807;DHT22;58882;52.170;5.386;2023-02-01T11:24:29;15.60;42.40
70807;DHT22;58882;52.170;5.386;2023-02-01T11:27:28;15.60;42.50
70807;DHT22;58882;52.170;5.386;2023-02-01T11:30:02;15.70;42.50
70807;DHT22;58882;52.170;5.386;2023-02-01T11:32:56;15.70;42.50
70807;DHT22;58882;52.170;5.386;2023-02-01T11:35:38;15.70;42.50
70807;DHT22;58882;52.170;5.386;2023-02-01T11:38:33;15.70;42.50
70807;DHT22;58882;52.170;5.386;2023-02-01T11:41:14;15.70;42.50
70807;DHT22;58882;52.170;5.386;2023-02-01T11:44:22;15.70;42.50
70807;DHT22;58882;52.170;5.386;2023-02-01T11:47:29;15.70;42.50
70807;DHT22;58882;52.170;5.386;2023-02-01T11:50:17;15.70;42.50
70807;DHT22;58882;52.170;5.386;2023-02-01T11:56:26;15.80;42.50
70807;DHT22;58882;52.170;5.386;2023-02-01T11:59:45;15.90;42.90
70807;DHT22;58882;52.170;5.386;2023-02-01T12:02:49;16.00;43.00
70807;DHT22;58882;52.170;5.386;2023-02-01T12:06:12;16.10;43.20
70807;DHT22;58882;52.170;5.386;2023-02-01T12:15:32;16.30;43.90
70807;DHT22;58882;52.170;5.386;2023-02-01T12:18:38;16.30;44.30
70807;DHT22;58882;52.170;5.386;2023-02-01T12:48:06;16.40;47.40
70807;DHT22;58882;52.170;5.386;2023-02-01T12:50:55;16.40;47.70
70807;DHT22;58882;52.170;5.386;2023-02-01T12:57:11;16.40;48.40
70807;DHT22;58882;52.170;5.386;2023-02-01T13:02:55;16.40;48.90
70807;DHT22;58882;52.170;5.386;2023-02-01T13:06:03;16.40;48.50
70807;DHT22;58882;52.170;5.386;2023-02-01T13:12:15;16.40;48.50
70807;DHT22;58882;52.170;5.386;2023-02-01T13:15:25;16.40;48.80
70807;DHT22;58882;52.170;5.386;2023-02-01T13:18:20;16.40;49.70
70807;DHT22;58882;52.170;5.386;2023-02-01T13:21:01;16.40;49.00
70807;DHT22;58882;52.170;5.386;2023-02-01T13:23:56;16.40;49.50
70807;DHT22;58882;52.170;5.386;2023-02-01T13:26:37;16.40;50.90
70807;DHT22;58882;52.170;5.386;2023-02-01T13:29:24;16.40;51.30
70807;DHT22;58882;52.170;5.386;2023-02-01T13:42:30;16.30;50.70
70807;DHT22;58882;52.170;5.386;2023-02-01T13:45:20;16.30;51.10
70807;DHT22;58882;52.170;5.386;2023-02-01T13:48:22;16.30;50.70
70807;DHT22;58882;52.170;5.386;2023-02-01T13:51:02;16.30;50.40
70807;DHT22;58882;52.170;5.386;2023-02-01T13:53:49;16.40;50.60
70807;DHT22;58882;52.170;5.386;2023-02-01T13:56:42;16.40;51.40
70807;DHT22;58882;52.170;5.386;2023-02-01T14:08:13;16.50;50.40
70807;DHT22;58882;52.170;5.386;2023-02-01T14:11:32;16.50;50.70
70807;DHT22;58882;52.170;5.386;2023-02-01T14:17:33;16.50;51.90
70807;DHT22;58882;52.170;5.386;2023-02-01T14:20:39;16.40;51.80
70807;DHT22;58882;52.170;5.386;2023-02-01T14:23:40;16.40;51.00
70807;DHT22;58882;52.170;5.386;2023-02-01T14:29:38;16.50;51.90
70807;DHT22;58882;52.170;5.386;2023-02-01T14:32:37;16.50;51.40
70807;DHT22;58882;52.170;5.386;2023-02-01T14:35:27;16.50;51.60
70807;DHT22;58882;52.170;5.386;2023-02-01T14:38:21;16.40;51.60
70807;DHT22;58882;52.170;5.386;2023-02-01T14:40:54;16.40;51.90
70807;DHT22;58882;52.170;5.386;2023-02-01T14:58:55;16.50;51.30
70807;DHT22;58882;52.170;5.386;2023-02-01T15:01:51;16.50;52.20
70807;DHT22;58882;52.170;5.386;2023-02-01T15:04:41;16.40;51.60
70807;DHT22;58882;52.170;5.386;2023-02-01T15:07:29;16.40;51.60
70807;DHT22;58882;52.170;5.386;2023-02-01T15:10:09;16.40;52.10
70807;DHT22;58882;52.170;5.386;2023-02-01T15:12:56;16.40;51.90
70807;DHT22;58882;52.170;5.386;2023-02-01T15:15:36;16.40;51.80
70807;DHT22;58882;52.170;5.386;2023-02-01T15:18:23;16.40;51.80
70807;DHT22;58882;52.170;5.386;2023-02-01T15:21:03;16.40;51.50
70807;DHT22;58882;52.170;5.386;2023-02-01T15:24:38;16.40;51.60
70807;DHT22;58882;52.170;5.386;2023-02-01T15:27:19;16.40;52.40
70807;DHT22;58882;52.170;5.386;2023-02-01T15:30:08;16.40;52.10
70807;DHT22;58882;52.170;5.386;2023-02-01T15:32:49;16.30;51.70
70807;DHT22;58882;52.170;5.386;2023-02-01T15:35:46;16.40;52.10
70807;DHT22;58882;52.170;5.386;2023-02-01T15:38:44;16.40;52.60
70807;DHT22;58882;52.170;5.386;2023-02-01T15:41:31;16.40;52.70
70807;DHT22;58882;52.170;5.386;2023-02-01T15:44:15;16.30;52.10
70807;DHT22;58882;52.170;5.386;2023-02-01T15:47:15;16.40;52.20
70807;DHT22;58882;52.170;5.386;2023-02-01T15:49:59;16.40;52.10
70807;DHT22;58882;52.170;5.386;2023-02-01T15:52:54;16.30;52.00
70807;DHT22;58882;52.170;5.386;2023-02-01T15:55:40;16.40;52.10
70807;DHT22;58882;52.170;5.386;2023-02-01T15:58:34;16.40;51.90
70807;DHT22;58882;52.170;5.386;2023-02-01T16:01:14;16.40;52.70
70807;DHT22;58882;52.170;5.386;2023-02-01T16:04:23;16.40;52.50
70807;DHT22;58882;52.170;5.386;2023-02-01T16:07:32;16.40;52.50
70807;DHT22;58882;52.170;5.386;2023-02-01T16:10:27;16.40;53.30
70807;DHT22;58882;52.170;5.386;2023-02-01T16:13:00;16.30;52.70
70807;DHT22;58882;52.170;5.386;2023-02-01T16:15:54;16.30;52.90
70807;DHT22;58882;52.170;5.386;2023-02-01T16:18:34;16.40;53.00
70807;DHT22;58882;52.170;5.386;2023-02-01T16:21:21;16.30;52.60
70807;DHT22;58882;52.170;5.386;2023-02-01T16:23:54;16.30;52.40
70807;DHT22;58882;52.170;5.386;2023-02-01T16:26:50;16.30;52.30
70807;DHT22;58882;52.170;5.386;2023-02-01T16:29:30;16.30;52.90
70807;DHT22;58882;52.170;5.386;2023-02-01T16:32:19;16.40;52.90
70807;DHT22;58882;52.170;5.386;2023-02-01T16:35:00;16.30;52.60
70807;DHT22;58882;52.170;5.386;2023-02-01T16:37:47;16.40;52.50
70807;DHT22;58882;52.170;5.386;2023-02-01T16:40:27;16.30;52.90
70807;DHT22;58882;52.170;5.386;2023-02-01T16:43:24;16.40;52.90
70807;DHT22;58882;52.170;5.386;2023-02-01T16:46:04;16.30;52.60
70807;DHT22;58882;52.170;5.386;2023-02-01T16:48:54;16.40;52.40
70807;DHT22;58882;52.170;5.386;2023-02-01T16:51:34;16.40;52.30
70807;DHT22;58882;52.170;5.386;2023-02-01T16:54:21;16.40;52.70
70807;DHT22;58882;52.170;5.386;2023-02-01T16:57:01;16.40;52.80
70807;DHT22;58882;52.170;5.386;2023-02-01T16:59:55;16.40;52.80
70807;DHT22;58882;52.170;5.386;2023-02-01T17:02:28;16.40;52.60
70807;DHT22;58882;52.170;5.386;2023-02-01T17:05:22;16.40;53.20
70807;DHT22;58882;52.170;5.386;2023-02-01T17:08:04;16.30;53.00
70807;DHT22;58882;52.170;5.386;2023-02-01T17:10:52;16.40;53.30
70807;DHT22;58882;52.170;5.386;2023-02-01T17:13:33;16.30;53.60
70807;DHT22;58882;52.170;5.386;2023-02-01T17:16:26;16.30;54.00
70807;DHT22;58882;52.170;5.386;2023-02-01T17:19:13;16.30;53.50
70807;DHT22;58882;52.170;5.386;2023-02-01T17:22:03;16.30;53.10
70807;DHT22;58882;52.170;5.386;2023-02-01T17:24:43;16.30;53.30
70807;DHT22;58882;52.170;5.386;2023-02-01T17:27:37;16.30;53.40
70807;DHT22;58882;52.170;5.386;2023-02-01T17:30:17;16.40;53.30
70807;DHT22;58882;52.170;5.386;2023-02-01T17:33:06;16.30;53.90
70807;DHT22;58882;52.170;5.386;2023-02-01T17:35:55;16.30;53.50
70807;DHT22;58882;52.170;5.386;2023-02-01T17:38:49;16.30;53.50
70807;DHT22;58882;52.170;5.386;2023-02-01T17:41:37;16.30;53.80
70807;DHT22;58882;52.170;5.386;2023-02-01T17:44:31;16.40;53.40
70807;DHT22;58882;52.170;5.386;2023-02-01T17:47:05;16.30;53.10
70807;DHT22;58882;52.170;5.386;2023-02-01T17:49:59;16.40;53.20
70807;DHT22;58882;52.170;5.386;2023-02-01T17:52:32;16.40;53.80
70807;DHT22;58882;52.170;5.386;2023-02-01T17:55:26;16.40;53.50
70807;DHT22;58882;52.170;5.386;2023-02-01T17:58:21;16.40;53.30
70807;DHT22;58882;52.170;5.386;2023-02-01T18:01:22;16.30;53.10
70807;DHT22;58882;52.170;5.386;2023-02-01T18:03:55;16.30;53.10
70807;DHT22;58882;52.170;5.386;2023-02-01T18:06:49;16.20;53.00
70807;DHT22;58882;52.170;5.386;2023-02-01T18:09:43;16.20;53.00
70807;DHT22;58882;52.170;5.386;2023-02-01T18:12:23;16.20;53.00
70807;DHT22;58882;52.170;5.386;2023-02-01T18:15:21;16.20;53.10
70807;DHT22;58882;52.170;5.386;2023-02-01T18:18:01;16.10;53.00
70807;DHT22;58882;52.170;5.386;2023-02-01T18:20:48;16.10;53.10
70807;DHT22;58882;52.170;5.386;2023-02-01T18:23:28;16.10;53.20
70807;DHT22;58882;52.170;5.386;2023-02-01T18:26:16;16.00;53.20
70807;DHT22;58882;52.170;5.386;2023-02-01T18:28:56;16.00;53.20
70807;DHT22;58882;52.170;5.386;2023-02-01T18:31:45;16.00;53.30
70807;DHT22;58882;52.170;5.386;2023-02-01T18:34:25;16.00;53.30
70807;DHT22;58882;52.170;5.386;2023-02-01T18:37:19;16.00;53.30
70807;DHT22;58882;52.170;5.386;2023-02-01T18:39:59;16.00;53.30
70807;DHT22;58882;52.170;5.386;2023-02-01T18:42:46;16.00;53.30
70807;DHT22;58882;52.170;5.386;2023-02-01T18:45:28;15.90;53.30
70807;DHT22;58882;52.170;5.386;2023-02-01T18:48:22;16.00;53.30
70807;DHT22;58882;52.170;5.386;2023-02-01T18:50:55;15.90;53.20
70807;DHT22;58882;52.170;5.386;2023-02-01T18:53:49;15.90;53.40
70807;DHT22;58882;52.170;5.386;2023-02-01T18:56:29;15.90;53.40
70807;DHT22;58882;52.170;5.386;2023-02-01T18:59:16;15.90;53.50
70807;DHT22;58882;52.170;5.386;2023-02-01T19:01:50;15.80;53.50
70807;DHT22;58882;52.170;5.386;2023-02-01T19:04:44;15.80;53.50
70807;DHT22;58882;52.170;5.386;2023-02-01T19:07:39;15.80;53.50
70807;DHT22;58882;52.170;5.386;2023-02-01T19:10:21;15.80;53.60
70807;DHT22;58882;52.170;5.386;2023-02-01T19:13:10;15.70;53.70
70807;DHT22;58882;52.170;5.386;2023-02-01T19:15:53;15.70;53.90
70807;DHT22;58882;52.170;5.386;2023-02-01T19:18:40;15.70;53.90
70807;DHT22;58882;52.170;5.386;2023-02-01T19:21:20;15.70;54.00
70807;DHT22;58882;52.170;5.386;2023-02-01T19:24:07;15.70;54.10
70807;DHT22;58882;52.170;5.386;2023-02-01T19:26:47;15.70;54.10
70807;DHT22;58882;52.170;5.386;2023-02-01T19:29:34;15.70;54.20
70807;DHT22;58882;52.170;5.386;2023-02-01T19:32:16;15.60;54.30
70807;DHT22;58882;52.170;5.386;2023-02-01T19:35:04;15.60;54.30
70807;DHT22;58882;52.170;5.386;2023-02-01T19:37:48;15.60;54.30
70807;DHT22;58882;52.170;5.386;2023-02-01T19:40:35;15.60;54.30
70807;DHT22;58882;52.170;5.386;2023-02-01T19:43:15;15.60;54.30
70807;DHT22;58882;52.170;5.386;2023-02-01T19:46:02;15.60;54.40
70807;DHT22;58882;52.170;5.386;2023-02-01T19:48:42;15.60;54.70
70807;DHT22;58882;52.170;5.386;2023-02-01T19:51:36;15.60;54.50
70807;DHT22;58882;52.170;5.386;2023-02-01T19:54:17;15.60;54.50